Time;durP1;ratioP1;P1;durP2;ratioP2;P2;SDS_P1;SDS_P2;PMS_P1;PMS_P2;Temp;Humidity;BMP_temperature;BMP_pressure;BME280_temperature;BME280_humidity;BME280_pressure;Samples;Min_cycle;Max_cycle;Signal;HPM_P1;HPM_P2
2023/04/08 00:07:07;;;;;;;15.50;12.60;;;;;;;3.07;100.00;99877.51;439179;1253;139303;-73
2023/04/08 00:17:13;;;;;;;16.10;13.70;;;;;;;2.99;100.00;99879.62;439361;1251;139581;-71
2023/04/08 00:27:18;;;;;;;18.50;12.60;;;;;;;2.90;100.00;99889.55;439488;1249;140169;-73
2023/04/08 00:37:24;;;;;;;19.30;14.80;;;;;;;2.79;100.00;99882.42;439093;1253;139838;-73
2023/04/08 00:47:31;;;;;;;15.60;12.10;;;;;;;2.71;100.00;99879.88;439139;1251;139271;-72
2023/04/08 00:57:37;;;;;;;15.90;12.70;;;;;;;2.58;100.00;99881.77;439265;1251;139356;-72
2023/04/08 01:07:47;;;;;;;18.90;13.80;;;;;;;2.45;100.00;99889.90;438888;1254;139803;-72
2023/04/08 01:17:56;;;;;;;21.90;14.10;;;;;;;2.41;100.00;99892.40;439006;1251;139086;-73
2023/04/08 01:28:05;;;;;;;19.60;13.90;;;;;;;2.42;100.00;99901.70;439069;1251;139655;-72
2023/04/08 01:38:15;;;;;;;20.20;14.60;;;;;;;2.48;100.00;99906.73;438982;1251;139713;-72
2023/04/08 01:48:21;;;;;;;21.40;16.60;;;;;;;2.54;100.00;99917.66;439027;1251;139944;-72
2023/04/08 01:58:33;;;;;;;20.10;15.70;;;;;;;2.57;100.00;99921.71;439080;1251;139628;-72
2023/04/08 02:08:38;;;;;;;17.70;14.30;;;;;;;2.58;100.00;99921.34;439266;1250;139765;-72
2023/04/08 02:18:50;;;;;;;18.60;13.90;;;;;;;2.61;100.00;99928.19;439154;1250;140746;-72
2023/04/08 02:28:58;;;;;;;21.30;15.70;;;;;;;2.64;100.00;99933.45;439048;1250;139095;-72
2023/04/08 02:39:04;;;;;;;21.80;17.10;;;;;;;2.66;100.00;99936.36;439813;1253;140345;-72
2023/04/08 02:49:10;;;;;;;16.30;14.30;;;;;;;2.69;100.00;99946.13;439351;1250;139816;-73
2023/04/08 02:59:16;;;;;;;14.10;11.60;;;;;;;2.70;100.00;99955.60;439011;1253;139142;-73
2023/04/08 03:09:22;;;;;;;12.80;11.50;;;;;;;2.70;100.00;99964.24;439198;1250;139803;-73
2023/04/08 03:19:28;;;;;;;12.40;9.70;;;;;;;2.67;100.00;99973.16;439145;1250;139753;-72
2023/04/08 03:29:34;;;;;;;12.20;9.70;;;;;;;2.64;100.00;99976.33;439056;1250;139792;-72
2023/04/08 03:39:40;;;;;;;12.50;10.90;;;;;;;2.61;100.00;99991.30;438898;1251;141207;-73
2023/04/08 03:49:46;;;;;;;14.60;10.40;;;;;;;2.54;100.00;100003.71;438999;1251;140644;-73
2023/04/08 03:59:52;;;;;;;11.80;8.90;;;;;;;2.46;100.00;100013.08;438988;1253;139440;-73
2023/04/08 04:09:58;;;;;;;10.60;9.10;;;;;;;2.41;100.00;100024.76;438953;1253;139511;-72
2023/04/08 04:20:05;;;;;;;9.20;8.00;;;;;;;2.33;100.00;100041.19;438787;1250;140024;-72
2023/04/08 04:30:14;;;;;;;9.20;7.90;;;;;;;2.27;100.00;100055.13;439463;1251;139127;-73
2023/04/08 04:40:21;;;;;;;9.00;8.10;;;;;;;2.23;100.00;100066.95;439083;1251;140220;-73
2023/04/08 04:50:27;;;;;;;11.10;8.70;;;;;;;2.20;100.00;100088.27;438904;1250;141567;-73
2023/04/08 05:00:32;;;;;;;8.40;7.60;;;;;;;2.37;100.00;100082.38;439005;1250;139185;-72
2023/04/08 05:10:40;;;;;;;8.10;7.30;;;;;;;2.62;99.91;100074.23;439066;1253;139059;-73
2023/04/08 05:20:46;;;;;;;7.70;6.90;;;;;;;3.27;99.09;100070.86;438987;1250;140220;-71
2023/04/08 05:30:53;;;;;;;8.30;6.70;;;;;;;6.51;98.62;100076.26;439144;1251;139702;-72
2023/04/08 05:40:59;;;;;;;8.90;8.10;;;;;;;11.17;89.59;100066.25;439534;1253;139107;-72
2023/04/08 05:51:05;;;;;;;5.60;5.10;;;;;;;12.40;84.42;100069.95;439044;1250;141841;-72
2023/04/08 06:01:11;;;;;;;7.50;6.80;;;;;;;16.17;77.82;100066.02;439091;1251;141096;-73
2023/04/08 06:11:16;;;;;;;6.80;6.10;;;;;;;19.04;71.98;100065.02;438977;1251;140034;-73
2023/04/08 06:21:22;;;;;;;5.40;5.00;;;;;;;21.81;56.87;100065.34;439011;1253;139013;-74
2023/04/08 06:31:28;;;;;;;5.70;5.00;;;;;;;23.42;50.83;100076.00;439181;1253;139278;-73
2023/04/08 06:41:34;;;;;;;6.10;5.50;;;;;;;23.65;44.08;100091.95;439366;1250;139144;-74
2023/04/08 06:51:39;;;;;;;7.30;6.60;;;;;;;23.30;40.20;100100.77;439127;1250;138453;-74
2023/04/08 07:01:45;;;;;;;6.00;5.60;;;;;;;23.94;39.82;100106.16;439736;1250;138602;-75
2023/04/08 07:11:51;;;;;;;5.80;5.40;;;;;;;23.88;36.81;100115.19;439414;1251;140660;-75
2023/04/08 07:21:57;;;;;;;6.30;5.70;;;;;;;23.59;36.14;100127.46;439144;1253;138802;-74
2023/04/08 07:32:03;;;;;;;5.30;4.90;;;;;;;23.77;34.49;100133.66;439007;1250;139799;-73
2023/04/08 07:42:09;;;;;;;6.90;6.40;;;;;;;22.14;35.04;100137.00;439618;1251;138440;-74
2023/04/08 07:52:15;;;;;;;6.60;6.00;;;;;;;21.36;34.61;100143.29;439590;1251;139792;-75
2023/04/08 08:02:21;;;;;;;7.60;6.90;;;;;;;20.53;36.63;100148.56;439264;1250;139027;-75
2023/04/08 08:12:27;;;;;;;9.70;8.70;;;;;;;16.15;39.45;100152.05;439403;1251;138927;-73
2023/04/08 08:22:38;;;;;;;10.40;9.30;;;;;;;15.20;43.44;100152.88;439338;1251;139380;-73
2023/04/08 08:33:02;;;;;;;9.80;8.90;;;;;;;21.63;38.47;100145.63;439595;1253;140420;-75
2023/04/08 08:43:09;;;;;;;9.40;8.60;;;;;;;23.73;35.15;100145.06;439501;1253;138770;-73
2023/04/08 08:53:15;;;;;;;9.60;8.50;;;;;;;18.59;38.02;100159.34;439530;1253;139036;-73
2023/04/08 09:03:23;;;;;;;8.10;7.40;;;;;;;15.69;41.27;100175.42;439345;1251;138843;-73
2023/04/08 09:13:38;;;;;;;8.70;7.70;;;;;;;13.60;43.59;100189.43;439744;1251;138501;-71
2023/04/08 09:23:46;;;;;;;10.40;9.40;;;;;;;11.72;46.67;100204.20;439948;1250;139982;-73
2023/04/08 09:33:56;;;;;;;9.30;8.40;;;;;;;11.16;48.82;100216.15;439676;1252;138759;-74
2023/04/08 09:44:04;;;;;;;9.10;8.20;;;;;;;11.94;49.25;100217.83;439265;1254;138594;-72
2023/04/08 09:54:14;;;;;;;9.80;8.30;;;;;;;12.01;49.06;100214.98;439370;1255;139127;-73
2023/04/08 10:04:24;;;;;;;10.20;9.20;;;;;;;12.19;49.58;100204.96;439369;1254;138961;-73
2023/04/08 10:14:30;;;;;;;8.20;7.40;;;;;;;12.47;49.74;100202.39;439218;1254;139252;-73
2023/04/08 10:24:36;;;;;;;9.00;7.90;;;;;;;12.53;49.81;100205.02;439252;1250;141274;-72
2023/04/08 10:34:53;;;;;;;9.30;7.90;;;;;;;12.20;49.83;100201.23;439163;1254;140518;-72
2023/04/08 10:45:03;;;;;;;8.00;7.10;;;;;;;11.82;50.66;100188.56;438968;1252;140904;-73
2023/04/08 10:55:10;;;;;;;9.30;8.50;;;;;;;11.21;51.18;100189.43;438868;1252;139289;-74
2023/04/08 11:05:18;;;;;;;8.20;7.30;;;;;;;11.30;51.83;100188.58;439138;1253;139599;-76
2023/04/08 11:15:25;;;;;;;7.50;6.70;;;;;;;11.50;51.78;100192.20;439075;1255;139375;-73
2023/04/08 11:25:31;;;;;;;7.90;7.10;;;;;;;11.85;52.03;100187.65;439157;1253;138932;-74
2023/04/08 11:35:41;;;;;;;7.80;7.00;;;;;;;12.20;51.63;100188.22;437985;1251;140287;-69
2023/04/08 11:45:47;;;;;;;7.80;7.10;;;;;;;12.64;51.42;100178.31;436911;1252;139205;-69
2023/04/08 11:55:53;;;;;;;7.80;7.10;;;;;;;12.75;49.97;100175.89;437427;1253;138868;-69
2023/04/08 12:05:59;;;;;;;6.00;5.50;;;;;;;12.71;49.76;100173.85;436874;1251;138476;-69
2023/04/08 12:16:06;;;;;;;5.50;5.00;;;;;;;12.52;49.12;100175.23;436188;1250;139127;-69
2023/04/08 12:26:12;;;;;;;6.10;5.60;;;;;;;12.67;49.34;100172.85;449650;1250;139115;-69
2023/04/08 12:36:18;;;;;;;6.20;5.70;;;;;;;12.30;48.48;100170.23;436495;1251;139623;-69
2023/04/08 12:46:23;;;;;;;8.80;7.70;;;;;;;12.08;49.35;100164.02;436554;1252;140734;-68
2023/04/08 12:56:30;;;;;;;6.30;5.80;;;;;;;12.20;49.82;100160.50;436611;1251;139864;-69
2023/04/08 13:06:36;;;;;;;7.30;6.60;;;;;;;11.85;50.17;100157.88;436746;1253;139102;-69
2023/04/08 13:16:42;;;;;;;6.40;5.90;;;;;;;11.88;50.42;100146.09;436336;1250;139562;-70
2023/04/08 13:26:48;;;;;;;5.90;4.80;;;;;;;11.69;50.23;100139.48;436374;1251;139886;-68
2023/04/08 13:36:54;;;;;;;6.20;5.60;;;;;;;11.81;49.13;100127.73;436742;1253;142116;-67
2023/04/08 13:47:00;;;;;;;7.90;6.40;;;;;;;11.98;48.95;100127.43;436583;1253;139231;-69
2023/04/08 13:57:06;;;;;;;7.10;6.20;;;;;;;11.91;48.66;100130.45;437412;1251;141076;-69
2023/04/08 14:07:12;;;;;;;6.80;6.10;;;;;;;11.90;47.82;100127.52;436382;1253;139673;-69
2023/04/08 14:17:18;;;;;;;6.10;5.50;;;;;;;12.12;48.85;100116.40;436882;1251;138646;-69
2023/04/08 14:27:24;;;;;;;5.70;5.10;;;;;;;11.99;48.01;100117.73;436483;1253;140409;-69
2023/04/08 14:37:30;;;;;;;5.80;5.30;;;;;;;11.98;47.69;100109.89;436799;1253;140258;-69
2023/04/08 14:47:35;;;;;;;7.00;6.20;;;;;;;12.53;47.85;100099.14;436701;1252;139097;-69
2023/04/08 14:57:41;;;;;;;7.10;6.40;;;;;;;12.35;48.75;100102.87;436406;1253;139578;-69
2023/04/08 15:07:47;;;;;;;6.60;5.90;;;;;;;12.05;49.32;100106.52;436530;1251;139813;-68
2023/04/08 15:17:53;;;;;;;6.50;5.90;;;;;;;12.02;49.25;100101.20;436405;1253;139576;-69
2023/04/08 15:27:59;;;;;;;6.50;5.40;;;;;;;12.20;49.09;100099.05;436379;1254;139053;-69
2023/04/08 15:38:05;;;;;;;6.30;5.70;;;;;;;12.26;49.43;100098.20;436457;1251;139694;-69
2023/04/08 15:48:12;;;;;;;6.70;6.00;;;;;;;12.09;50.14;100109.39;437775;1250;139021;-70
2023/04/08 15:58:17;;;;;;;7.70;6.90;;;;;;;11.84;50.78;100109.65;436910;1253;139252;-69
2023/04/08 16:08:23;;;;;;;6.90;5.90;;;;;;;11.78;50.61;100115.69;436635;1256;140003;-69
2023/04/08 16:18:29;;;;;;;7.90;6.50;;;;;;;11.58;50.82;100127.34;437158;1253;138632;-69
2023/04/08 16:28:35;;;;;;;11.70;9.20;;;;;;;11.31;51.43;100129.27;437451;1253;138838;-69
2023/04/08 16:38:41;;;;;;;9.60;8.60;;;;;;;11.06;52.06;100131.95;436888;1254;139065;-69
2023/04/08 16:48:47;;;;;;;9.90;7.90;;;;;;;10.82;52.67;100138.54;436783;1251;140266;-69
2023/04/08 16:58:54;;;;;;;10.70;9.40;;;;;;;10.63;53.28;100141.37;436934;1254;140303;-70
2023/04/08 17:09:00;;;;;;;8.80;7.90;;;;;;;10.47;53.65;100146.08;437722;1254;139387;-70
2023/04/08 17:19:06;;;;;;;9.70;8.10;;;;;;;10.33;54.21;100149.23;436801;1252;142235;-69
2023/04/08 17:29:12;;;;;;;10.70;9.60;;;;;;;10.19;54.80;100158.02;436987;1253;138949;-70
2023/04/08 17:39:18;;;;;;;9.50;8.40;;;;;;;10.06;55.32;100161.70;436426;1254;138996;-69
2023/04/08 17:49:24;;;;;;;11.80;9.90;;;;;;;9.95;55.90;100172.19;436269;1251;138776;-68
2023/04/08 17:59:30;;;;;;;13.00;9.60;;;;;;;9.86;56.29;100182.13;436367;1251;139222;-70
2023/04/08 18:09:36;;;;;;;12.10;9.40;;;;;;;9.77;56.63;100184.87;436430;1254;139809;-70
2023/04/08 18:19:41;;;;;;;10.90;8.60;;;;;;;9.71;56.79;100192.34;436269;1253;139531;-69
2023/04/08 18:29:47;;;;;;;11.20;9.00;;;;;;;9.62;57.02;100191.35;436616;1251;140929;-69
2023/04/08 18:39:53;;;;;;;11.00;8.90;;;;;;;9.50;57.19;100198.28;436402;1253;140152;-69
2023/04/08 18:49:59;;;;;;;16.10;11.70;;;;;;;9.42;57.42;100205.80;436375;1252;139290;-70
2023/04/08 19:00:05;;;;;;;15.10;12.00;;;;;;;9.37;57.46;100206.73;436781;1254;139606;-69
2023/04/08 19:10:12;;;;;;;15.40;12.00;;;;;;;9.34;57.42;100203.41;437029;1251;140362;-69
2023/04/08 19:20:18;;;;;;;11.10;9.70;;;;;;;9.32;57.61;100203.14;437119;1251;140612;-68
2023/04/08 19:30:26;;;;;;;11.30;9.70;;;;;;;9.35;57.59;100207.05;436909;1251;138549;-70
2023/04/08 19:40:32;;;;;;;10.70;9.60;;;;;;;9.34;57.85;100200.10;436933;1254;139304;-69
2023/04/08 19:50:40;;;;;;;10.10;9.10;;;;;;;9.31;57.64;100202.50;436599;1253;139669;-70
2023/04/08 20:00:46;;;;;;;14.00;12.10;;;;;;;9.31;57.76;100204.80;436989;1251;141425;-70
2023/04/08 20:10:52;;;;;;;12.00;10.20;;;;;;;9.27;57.93;100201.48;436737;1251;139922;-70
2023/04/08 20:20:59;;;;;;;11.40;9.90;;;;;;;9.24;57.71;100207.73;436793;1251;139927;-71
2023/04/08 20:31:06;;;;;;;11.00;9.30;;;;;;;9.21;57.63;100207.02;436858;1254;139628;-70
2023/04/08 20:41:12;;;;;;;14.30;10.60;;;;;;;9.14;57.92;100207.16;437003;1251;139820;-70
2023/04/08 20:51:18;;;;;;;16.00;12.50;;;;;;;9.03;58.06;100207.69;436919;1250;139741;-70
2023/04/08 21:01:24;;;;;;;12.80;10.30;;;;;;;8.94;58.52;100217.88;436825;1251;139631;-69
2023/04/08 21:11:30;;;;;;;14.90;11.50;;;;;;;8.88;59.03;100224.45;437066;1253;139366;-69
2023/04/08 21:21:36;;;;;;;13.40;11.70;;;;;;;8.82;59.37;100231.89;436361;1251;140587;-71
2023/04/08 21:31:42;;;;;;;13.40;10.90;;;;;;;8.77;59.58;100238.73;436616;1251;140175;-69
2023/04/08 21:41:48;;;;;;;15.50;11.20;;;;;;;8.75;60.42;100247.20;437142;1249;139062;-71
2023/04/08 21:51:54;;;;;;;13.70;11.40;;;;;;;8.67;61.00;100250.19;437746;1254;139220;-71
2023/04/08 22:02:07;;;;;;;9.90;7.90;;;;;;;8.47;61.84;100253.14;437138;1253;139361;-70
2023/04/08 22:12:16;;;;;;;11.00;8.80;;;;;;;8.25;62.77;100253.74;438000;1251;138669;-70
2023/04/08 22:22:23;;;;;;;6.00;5.20;;;;;;;8.04;63.92;100256.93;437497;1253;139598;-69
2023/04/08 22:32:28;;;;;;;6.90;5.60;;;;;;;7.87;64.76;100251.73;436618;1251;140604;-69
2023/04/08 22:42:35;;;;;;;6.20;5.10;;;;;;;7.76;65.27;100244.70;436613;1254;141051;-68
2023/04/08 22:52:41;;;;;;;5.50;4.70;;;;;;;7.60;66.02;100242.90;436260;1254;140830;-72
2023/04/08 23:02:47;;;;;;;6.90;5.80;;;;;;;7.48;66.65;100246.87;436244;1251;139082;-70
2023/04/08 23:12:52;;;;;;;6.40;5.30;;;;;;;7.41;67.19;100244.85;436342;1253;139300;-69
2023/04/08 23:22:58;;;;;;;5.80;5.10;;;;;;;7.39;67.76;100242.19;436464;1251;138936;-70
2023/04/08 23:33:04;;;;;;;7.10;4.90;;;;;;;7.37;68.10;100236.83;436667;1254;140103;-71
2023/04/08 23:43:10;;;;;;;5.30;4.60;;;;;;;7.37;68.45;100231.44;436817;1250;139689;-70
2023/04/08 23:53:16;;;;;;;6.10;5.30;;;;;;;7.40;68.45;100230.62;436542;1251;139088;-70
